createdAt,value
2023-05-02T00:00:00.903Z,13.02
2023-05-02T00:02:29.341Z,14.25
2023-05-02T00:04:57.577Z,13.43
2023-05-02T00:07:26.610Z,14.35
2023-05-02T00:09:54.943Z,14.57
2023-05-02T00:12:24.261Z,15.27
2023-05-02T00:14:52.178Z,15.18
2023-05-02T00:17:20.489Z,14.98
2023-05-02T00:19:48.941Z,14.27
2023-05-02T00:22:17.017Z,16.02
2023-05-02T00:24:44.955Z,15.38
2023-05-02T00:27:12.912Z,16.42
2023-05-02T00:29:42.100Z,16.83
2023-05-02T00:32:09.902Z,16.75
2023-05-02T00:34:37.853Z,17.90
2023-05-02T00:37:05.664Z,17.75
2023-05-02T00:39:35.067Z,16.17
2023-05-02T00:42:03.426Z,17.70
2023-05-02T00:44:31.625Z,17.80
2023-05-02T00:47:02.801Z,19.10
2023-05-02T00:49:31.516Z,20.27
2023-05-02T00:51:59.856Z,21.70
2023-05-02T00:54:27.922Z,17.50
2023-05-02T00:56:55.758Z,18.23
2023-05-02T00:59:23.771Z,19.42
2023-05-02T01:02:02.234Z,19.55
2023-05-02T01:04:42.437Z,21.17
2023-05-02T01:07:24.004Z,20.75
2023-05-02T01:10:02.792Z,20.92
2023-05-02T01:12:39.336Z,20.35
2023-05-02T01:15:10.633Z,20.85
2023-05-02T01:17:39.994Z,21.00
2023-05-02T01:20:14.797Z,21.75
2023-05-02T01:22:43.276Z,20.15
2023-05-02T01:25:23.674Z,23.10
2023-05-02T01:28:01.589Z,22.25
2023-05-02T01:30:34.045Z,22.17
2023-05-02T01:33:04.235Z,24.10
2023-05-02T01:35:34.952Z,22.80
2023-05-02T01:38:04.187Z,23.67
2023-05-02T01:40:32.776Z,24.63
2023-05-02T01:43:04.321Z,23.30
2023-05-02T01:45:37.727Z,23.55
2023-05-02T01:48:08.868Z,22.67
2023-05-02T01:50:38.588Z,24.30
2023-05-02T01:53:09.554Z,22.90
2023-05-02T01:55:39.572Z,23.20
2023-05-02T01:58:08.517Z,24.55
2023-05-02T02:00:39.041Z,20.13
2023-05-02T02:03:07.521Z,21.88
2023-05-02T02:05:36.570Z,21.35
2023-05-02T02:08:04.901Z,22.83
2023-05-02T02:10:41.199Z,22.63
2023-05-02T02:13:16.947Z,22.70
2023-05-02T02:15:49.140Z,19.45
2023-05-02T02:18:22.256Z,20.10
2023-05-02T02:20:52.120Z,21.33
2023-05-02T02:23:27.098Z,20.58
2023-05-02T02:25:56.940Z,20.08
2023-05-02T02:28:25.066Z,20.52
2023-05-02T02:30:54.393Z,21.33
2023-05-02T02:33:26.247Z,22.88
2023-05-02T02:36:05.486Z,20.13
2023-05-02T02:38:43.059Z,19.08
2023-05-02T02:41:18.069Z,19.38
2023-05-02T02:43:59.548Z,20.13
2023-05-02T02:46:35.728Z,20.58
2023-05-02T02:49:16.388Z,18.38
2023-05-02T02:51:48.148Z,20.98
2023-05-02T02:54:30.344Z,19.80
2023-05-02T02:57:03.532Z,18.30
2023-05-02T02:59:35.351Z,17.88
2023-05-02T03:02:09.281Z,20.48
2023-05-02T03:04:40.272Z,19.48
2023-05-02T03:07:08.715Z,18.98
2023-05-02T03:09:43.280Z,21.48
2023-05-02T03:12:15.459Z,18.17
2023-05-02T03:14:44.888Z,18.80
2023-05-02T03:17:14.359Z,19.75
2023-05-02T03:19:43.242Z,18.50
2023-05-02T03:22:11.451Z,19.60
2023-05-02T03:24:39.294Z,16.45
2023-05-02T03:27:07.167Z,17.80
2023-05-02T03:29:41.065Z,17.60
2023-05-02T03:32:10.493Z,19.98
2023-05-02T03:34:41.828Z,20.10
2023-05-02T03:37:10.273Z,18.45
2023-05-02T03:39:38.141Z,17.70
2023-05-02T03:42:06.734Z,17.67
2023-05-02T03:44:34.544Z,19.60
2023-05-02T03:47:03.410Z,17.92
2023-05-02T03:49:36.938Z,17.25
2023-05-02T03:52:06.930Z,16.52
2023-05-02T03:54:36.721Z,14.82
2023-05-02T03:57:05.969Z,16.85
2023-05-02T03:59:35.281Z,15.85
2023-05-02T04:02:11.515Z,15.70
2023-05-02T04:04:43.960Z,13.85
2023-05-02T04:07:19.239Z,14.02
2023-05-02T04:09:51.255Z,15.05
2023-05-02T04:12:19.201Z,12.77
2023-05-02T04:14:49.813Z,12.30
2023-05-02T04:17:18.216Z,13.45
2023-05-02T04:19:49.188Z,12.68
2023-05-02T04:22:19.383Z,13.25
2023-05-02T04:24:52.619Z,12.63
2023-05-02T04:27:20.889Z,12.73
2023-05-02T04:29:49.854Z,12.68
2023-05-02T04:32:19.220Z,13.20
2023-05-02T04:34:48.394Z,13.45
2023-05-02T04:37:18.100Z,13.50
2023-05-02T04:39:48.720Z,14.85
2023-05-02T04:42:20.406Z,11.90
2023-05-02T04:44:59.495Z,11.70
2023-05-02T04:47:27.488Z,11.45
2023-05-02T04:49:55.660Z,12.98
2023-05-02T04:52:23.977Z,14.88
2023-05-02T04:54:53.570Z,12.93
2023-05-02T04:57:23.287Z,13.05
2023-05-02T04:59:55.781Z,14.90
2023-05-02T05:02:25.848Z,12.45
2023-05-02T05:04:54.907Z,15.45
2023-05-02T05:07:22.999Z,16.25
2023-05-02T05:09:54.777Z,14.38
2023-05-02T05:12:25.425Z,15.07
2023-05-02T05:14:53.585Z,16.65
2023-05-02T05:17:24.187Z,16.90
2023-05-02T05:20:03.638Z,15.52
2023-05-02T05:22:32.890Z,15.25
2023-05-02T05:25:02.404Z,15.90
2023-05-02T05:27:32.770Z,14.73
2023-05-02T05:30:01.107Z,15.95
2023-05-02T05:32:29.543Z,15.50
2023-05-02T05:34:58.018Z,14.55
2023-05-02T05:37:28.127Z,14.30
2023-05-02T05:39:57.994Z,13.23
2023-05-02T05:42:27.282Z,15.55
2023-05-02T05:44:59.608Z,14.25
2023-05-02T05:47:28.303Z,15.57
2023-05-02T05:49:57.035Z,13.55
2023-05-02T05:52:30.392Z,12.90
2023-05-02T05:55:01.018Z,13.95
2023-05-02T05:57:31.401Z,13.95
2023-05-02T05:59:59.465Z,13.77
2023-05-02T06:02:27.709Z,10.25
2023-05-02T06:04:56.985Z,10.10
2023-05-02T06:07:26.478Z,9.43
2023-05-02T06:09:54.525Z,9.38
2023-05-02T06:12:22.936Z,8.20
2023-05-02T06:14:52.626Z,8.13
2023-05-02T06:17:20.806Z,10.27
2023-05-02T06:19:50.453Z,8.30
2023-05-02T06:22:18.347Z,7.00
2023-05-02T06:24:46.170Z,9.02
2023-05-02T06:27:13.985Z,8.20
2023-05-02T06:29:41.788Z,9.38
2023-05-02T06:32:10.992Z,7.93
2023-05-02T06:34:38.774Z,8.63
2023-05-02T06:37:06.945Z,8.27
2023-05-02T06:39:34.745Z,9.85
2023-05-02T06:42:02.917Z,7.85
2023-05-02T06:44:31.497Z,9.18
2023-05-02T06:46:59.359Z,8.13
2023-05-02T06:49:28.697Z,5.95
2023-05-02T06:51:56.502Z,6.00
2023-05-02T06:54:24.322Z,7.28
2023-05-02T06:56:52.381Z,4.70
2023-05-02T06:59:20.201Z,6.80
2023-05-02T07:01:48.036Z,4.97
2023-05-02T07:04:15.873Z,4.60
2023-05-02T07:06:45.157Z,6.07
2023-05-02T07:09:12.976Z,6.75
2023-05-02T07:11:40.844Z,5.05
2023-05-02T07:14:08.605Z,6.13
2023-05-02T07:16:36.501Z,5.22
2023-05-02T07:19:06.612Z,5.88
2023-05-02T07:21:34.484Z,5.80
2023-05-02T07:24:03.741Z,5.70
2023-05-02T07:26:31.573Z,5.80
2023-05-02T07:28:59.350Z,5.88
2023-05-02T07:31:27.213Z,7.03
2023-05-02T07:33:55.098Z,5.72
2023-05-02T07:36:22.889Z,5.75
2023-05-02T07:38:51.096Z,6.35
2023-05-02T07:41:20.587Z,6.70
2023-05-02T07:43:48.377Z,6.32
2023-05-02T07:46:16.357Z,6.70
2023-05-02T07:48:44.338Z,6.57
2023-05-02T07:51:12.532Z,6.82
2023-05-02T07:53:40.466Z,7.95
2023-05-02T07:56:09.088Z,7.38
2023-05-02T07:58:38.372Z,5.20
2023-05-02T08:01:06.350Z,4.07
2023-05-02T08:03:34.307Z,6.10
2023-05-02T08:06:04.092Z,4.53
2023-05-02T08:08:32.015Z,6.40
2023-05-02T08:10:59.902Z,4.85
2023-05-02T08:13:28.361Z,5.13
2023-05-02T08:15:58.411Z,4.65
2023-05-02T08:18:26.659Z,5.07
2023-05-02T08:20:55.644Z,5.80
2023-05-02T08:23:23.445Z,4.00
2023-05-02T08:25:51.215Z,5.25
2023-05-02T08:28:19.752Z,5.32
2023-05-02T08:30:47.841Z,5.72
2023-05-02T08:33:17.096Z,5.15
2023-05-02T08:35:44.921Z,5.25
2023-05-02T08:38:12.711Z,5.07
2023-05-02T08:40:42.825Z,5.32
2023-05-02T08:43:12.863Z,5.90
2023-05-02T08:45:42.609Z,5.43
2023-05-02T08:48:12.157Z,4.97
2023-05-02T08:50:44.498Z,5.28
2023-05-02T08:53:14.715Z,4.60
2023-05-02T08:55:44.044Z,6.60
2023-05-02T08:58:13.977Z,5.22
2023-05-02T09:00:44.160Z,4.70
2023-05-02T09:03:24.982Z,5.30
2023-05-02T09:06:00.849Z,4.53
2023-05-02T09:08:28.928Z,4.95
2023-05-02T09:10:56.784Z,5.38
2023-05-02T09:13:32.054Z,5.65
2023-05-02T09:16:02.251Z,4.47
2023-05-02T09:18:31.980Z,5.35
2023-05-02T09:21:02.523Z,4.30
2023-05-02T09:23:34.895Z,4.57
2023-05-02T09:26:03.280Z,6.47
2023-05-02T09:28:42.042Z,4.93
2023-05-02T09:31:11.124Z,5.35
2023-05-02T09:33:40.112Z,5.50
2023-05-02T09:36:10.913Z,5.38
2023-05-02T09:38:39.696Z,5.05
2023-05-02T09:41:07.606Z,4.35
2023-05-02T09:43:35.418Z,4.70
2023-05-02T09:46:05.239Z,5.53
2023-05-02T09:48:34.368Z,5.95
2023-05-02T09:51:02.563Z,5.35
2023-05-02T09:53:31.870Z,5.53
2023-05-02T09:56:04.560Z,4.13
2023-05-02T09:58:32.558Z,3.53
2023-05-02T10:01:00.980Z,4.15
2023-05-02T10:03:30.346Z,4.35
2023-05-02T10:05:58.222Z,3.55
2023-05-02T10:08:32.080Z,3.90
2023-05-02T10:11:14.123Z,3.80
2023-05-02T10:13:44.212Z,3.38
2023-05-02T10:16:14.403Z,4.82
2023-05-02T10:18:48.283Z,4.13
2023-05-02T10:21:18.748Z,6.60
2023-05-02T10:23:46.718Z,6.32
2023-05-02T10:26:18.413Z,5.93
2023-05-02T10:28:46.808Z,4.88
2023-05-02T10:31:16.204Z,5.57
2023-05-02T10:33:44.553Z,4.50
2023-05-02T10:36:14.161Z,5.53
2023-05-02T10:38:43.270Z,4.70
2023-05-02T10:41:14.756Z,3.95
2023-05-02T10:43:49.158Z,3.83
2023-05-02T10:46:33.947Z,4.75
2023-05-02T10:49:03.750Z,5.80
2023-05-02T10:51:32.463Z,4.78
2023-05-02T10:54:22.960Z,5.13
2023-05-02T10:57:05.865Z,4.55
2023-05-02T11:02:07.178Z,3.80
2023-05-02T11:05:01.663Z,6.70
2023-05-02T11:07:31.158Z,6.47
2023-05-02T11:10:26.285Z,5.70
2023-05-02T11:12:55.388Z,4.57
2023-05-02T11:15:59.152Z,4.75
2023-05-02T11:18:27.299Z,4.93
2023-05-02T11:21:28.755Z,5.32
2023-05-02T11:24:29.941Z,5.03
2023-05-02T11:27:30.969Z,6.55
2023-05-02T11:30:00.158Z,5.00
2023-05-02T11:33:08.516Z,4.00
2023-05-02T11:35:37.325Z,4.20
2023-05-02T11:38:06.564Z,4.80
2023-05-02T11:40:34.534Z,3.88
2023-05-02T11:43:13.232Z,4.07
2023-05-02T11:45:42.563Z,4.93
2023-05-02T11:48:14.494Z,5.18
2023-05-02T11:50:49.347Z,4.07
2023-05-02T11:53:19.838Z,5.80
2023-05-02T11:55:49.110Z,5.30
2023-05-02T11:58:18.694Z,5.75
2023-05-02T12:00:48.034Z,7.70
2023-05-02T12:03:29.583Z,5.35
2023-05-02T12:05:58.293Z,5.50
2023-05-02T12:08:28.243Z,6.45
2023-05-02T12:10:57.593Z,7.07
2023-05-02T12:13:26.854Z,5.82
2023-05-02T12:15:56.037Z,6.32
2023-05-02T12:18:27.163Z,5.05
2023-05-02T12:20:56.606Z,4.38
2023-05-02T12:23:26.281Z,4.75
2023-05-02T12:25:54.401Z,5.40
2023-05-02T12:28:24.005Z,5.53
2023-05-02T12:30:52.716Z,5.15
2023-05-02T12:33:20.808Z,5.13
2023-05-02T12:35:51.231Z,6.15
2023-05-02T12:38:22.941Z,5.05
2023-05-02T12:40:53.354Z,5.03
2023-05-02T12:43:21.935Z,4.43
2023-05-02T12:45:51.777Z,5.80
2023-05-02T12:48:26.565Z,4.40
2023-05-02T12:50:56.619Z,5.55
2023-05-02T12:53:41.476Z,7.50
2023-05-02T12:56:10.481Z,5.43
2023-05-02T12:58:45.775Z,6.13
2023-05-02T13:01:15.103Z,7.20
2023-05-02T13:03:43.955Z,6.25
2023-05-02T13:06:13.354Z,5.68
2023-05-02T13:08:41.510Z,4.88
2023-05-02T13:11:09.402Z,7.40
2023-05-02T13:13:37.281Z,4.75
2023-05-02T13:16:05.560Z,5.80
2023-05-02T13:18:33.569Z,6.03
2023-05-02T13:21:01.573Z,5.38
2023-05-02T13:23:30.847Z,5.82
2023-05-02T13:25:59.063Z,5.65
2023-05-02T13:28:26.961Z,5.03
2023-05-02T13:30:54.857Z,4.90
2023-05-02T13:33:22.645Z,5.20
2023-05-02T13:35:50.516Z,4.90
2023-05-02T13:38:18.383Z,4.97
2023-05-02T13:40:47.633Z,5.25
2023-05-02T13:43:15.689Z,5.13
2023-05-02T13:45:43.773Z,3.92
2023-05-02T13:48:11.674Z,4.93
2023-05-02T13:50:39.653Z,4.72
2023-05-02T13:53:07.529Z,4.32
2023-05-02T13:55:35.567Z,4.10
2023-05-02T13:58:05.311Z,6.32
2023-05-02T14:00:33.213Z,3.40
2023-05-02T14:03:01.304Z,4.05
2023-05-02T14:05:29.299Z,4.80
2023-05-02T14:07:57.245Z,4.22
2023-05-02T14:10:25.542Z,4.13
2023-05-02T14:12:53.868Z,4.13
2023-05-02T14:15:23.920Z,4.65
2023-05-02T14:17:52.068Z,5.10
2023-05-02T14:20:20.286Z,4.30
2023-05-02T14:22:48.302Z,4.65
2023-05-02T14:25:19.771Z,4.57
2023-05-02T14:27:47.591Z,3.67
2023-05-02T14:30:16.782Z,7.93
2023-05-02T14:32:46.437Z,5.35
2023-05-02T14:35:14.327Z,4.00
2023-05-02T14:37:44.990Z,4.97
2023-05-02T14:40:14.001Z,5.25
2023-05-02T14:42:42.132Z,5.15
2023-05-02T14:45:11.039Z,5.07
2023-05-02T14:47:38.974Z,4.35
2023-05-02T14:50:09.262Z,5.35
2023-05-02T14:52:37.242Z,4.43
2023-05-02T14:55:06.230Z,4.28
2023-05-02T14:57:34.162Z,4.93
2023-05-02T15:00:02.588Z,5.00
2023-05-02T15:02:30.839Z,4.95
2023-05-02T15:04:58.659Z,4.57
2023-05-02T15:07:28.737Z,4.18
2023-05-02T15:09:56.683Z,4.70
2023-05-02T15:12:25.808Z,5.03
2023-05-02T15:14:53.727Z,4.63
2023-05-02T15:17:22.291Z,4.82
2023-05-02T15:19:50.145Z,4.78
2023-05-02T15:22:18.331Z,5.88
2023-05-02T15:24:47.553Z,4.40
2023-05-02T15:27:15.816Z,5.20
2023-05-02T15:29:43.864Z,5.63
2023-05-02T15:32:11.761Z,5.47
2023-05-02T15:34:39.734Z,4.40
2023-05-02T15:37:08.153Z,4.82
2023-05-02T15:39:36.064Z,6.28
2023-05-02T15:42:07.843Z,5.22
2023-05-02T15:44:38.919Z,6.47
2023-05-02T15:47:08.573Z,5.20
2023-05-02T15:49:37.940Z,6.72
2023-05-02T15:52:06.190Z,6.10
2023-05-02T15:54:34.250Z,5.15
2023-05-02T15:57:02.652Z,6.32
2023-05-02T15:59:32.005Z,4.72
2023-05-02T16:01:59.901Z,5.07
2023-05-02T16:04:28.618Z,5.00
2023-05-02T16:06:56.685Z,5.22
2023-05-02T16:09:24.618Z,4.18
2023-05-02T16:11:52.469Z,5.45
2023-05-02T16:14:23.863Z,6.05
2023-05-02T16:16:53.154Z,4.95
2023-05-02T16:19:23.745Z,5.68
2023-05-02T16:21:51.610Z,4.75
2023-05-02T16:24:19.469Z,5.85
2023-05-02T16:26:47.325Z,4.47
2023-05-02T16:29:15.119Z,5.82
2023-05-02T16:31:44.537Z,6.05
2023-05-02T16:34:14.153Z,5.32
2023-05-02T16:36:42.504Z,5.30
2023-05-02T16:39:12.242Z,5.75
2023-05-02T16:41:40.702Z,6.07
2023-05-02T16:44:08.588Z,4.93
2023-05-02T16:46:36.856Z,5.40
2023-05-02T16:49:04.743Z,5.53
2023-05-02T16:51:34.009Z,5.13
2023-05-02T16:54:02.544Z,4.75
2023-05-02T16:56:30.504Z,4.65
2023-05-02T16:58:58.408Z,5.60
2023-05-02T17:01:26.466Z,6.00
2023-05-02T17:03:54.430Z,6.70
2023-05-02T17:06:22.997Z,4.45
2023-05-02T17:08:52.410Z,12.93
2023-05-02T17:11:20.960Z,10.20
2023-05-02T17:13:49.783Z,13.13
2023-05-02T17:16:18.031Z,10.15
2023-05-02T17:18:46.118Z,11.07
2023-05-02T17:21:14.257Z,8.85
2023-05-02T17:23:42.180Z,8.05
2023-05-02T17:26:15.547Z,7.00
2023-05-02T17:28:44.521Z,5.43
2023-05-02T17:31:13.014Z,6.55
2023-05-02T17:33:42.230Z,8.32
2023-05-02T17:36:10.597Z,7.28
2023-05-02T17:38:38.637Z,4.30
2023-05-02T17:41:06.819Z,4.85
2023-05-02T17:43:37.918Z,5.88
2023-05-02T17:46:09.106Z,5.43
2023-05-02T17:48:37.242Z,6.63
2023-05-02T17:51:07.020Z,5.80
2023-05-02T17:53:36.810Z,5.95
2023-05-02T17:56:05.394Z,5.38
2023-05-02T17:58:35.408Z,3.92
2023-05-02T18:01:09.603Z,4.45
2023-05-02T18:03:38.341Z,4.22
2023-05-02T18:06:06.654Z,5.35
2023-05-02T18:08:34.729Z,4.85
2023-05-02T18:11:03.263Z,4.63
2023-05-02T18:13:31.336Z,6.20
2023-05-02T18:15:59.593Z,4.57
2023-05-02T18:18:28.947Z,4.18
2023-05-02T18:20:56.850Z,4.72
2023-05-02T18:23:27.043Z,5.53
2023-05-02T18:25:55.677Z,3.72
2023-05-02T18:28:23.470Z,4.50
2023-05-02T18:30:51.381Z,4.25
2023-05-02T18:33:19.236Z,4.95
2023-05-02T18:35:49.583Z,4.97
2023-05-02T18:38:18.334Z,5.03
2023-05-02T18:40:46.519Z,6.65
2023-05-02T18:43:14.389Z,5.68
2023-05-02T18:45:44.438Z,3.85
2023-05-02T18:48:12.489Z,5.68
2023-05-02T18:50:40.443Z,5.30
2023-05-02T18:53:09.764Z,5.13
2023-05-02T18:55:37.613Z,4.47
2023-05-02T18:58:05.465Z,5.90
2023-05-02T19:00:36.255Z,4.60
2023-05-02T19:03:12.723Z,4.32
2023-05-02T19:05:41.145Z,5.90
2023-05-02T19:08:10.853Z,5.05
2023-05-02T19:10:39.109Z,5.05
2023-05-02T19:13:07.275Z,5.15
2023-05-02T19:15:35.427Z,5.45
2023-05-02T19:18:03.671Z,5.22
2023-05-02T19:20:31.687Z,6.50
2023-05-02T19:23:15.179Z,4.47
2023-05-02T19:25:48.272Z,4.57
2023-05-02T19:28:19.793Z,5.07
2023-05-02T19:30:48.021Z,5.20
2023-05-02T19:33:16.005Z,4.53
2023-05-02T19:35:44.270Z,5.18
2023-05-02T19:38:12.635Z,5.70
2023-05-02T19:40:40.909Z,4.90
2023-05-02T19:43:11.104Z,5.47
2023-05-02T19:45:39.791Z,5.22
2023-05-02T19:48:08.794Z,4.82
2023-05-02T19:50:38.320Z,7.22
2023-05-02T19:53:08.958Z,5.68
2023-05-02T19:55:40.195Z,5.25
2023-05-02T19:58:49.891Z,5.85
2023-05-02T20:01:36.571Z,5.07
2023-05-02T20:04:05.355Z,4.03
2023-05-02T20:06:34.524Z,5.20
2023-05-02T20:09:05.758Z,4.70
2023-05-02T20:11:34.165Z,4.28
2023-05-02T20:14:15.857Z,4.30
2023-05-02T20:17:49.309Z,5.60
2023-05-02T20:20:13.502Z,5.00
2023-05-02T20:22:41.768Z,5.80
2023-05-02T20:25:11.653Z,4.32
2023-05-02T20:27:40.182Z,4.80
2023-05-02T20:30:12.283Z,4.43
2023-05-02T20:32:40.425Z,6.30
2023-05-02T20:35:09.304Z,4.22
2023-05-02T20:37:37.644Z,4.93
2023-05-02T20:40:09.951Z,5.07
2023-05-02T20:42:41.456Z,7.13
2023-05-02T20:45:14.201Z,5.70
2023-05-02T20:50:11.295Z,5.20
2023-05-02T20:52:39.762Z,4.65
2023-05-02T20:55:09.013Z,5.80
2023-05-02T20:57:37.278Z,3.83
2023-05-02T21:00:06.686Z,4.35
2023-05-02T21:02:36.113Z,5.65
2023-05-02T21:05:06.125Z,6.65
2023-05-02T21:07:34.372Z,6.97
2023-05-02T21:10:02.615Z,4.53
2023-05-02T21:12:31.216Z,5.75
2023-05-02T21:14:59.208Z,5.30
2023-05-02T21:17:28.598Z,5.75
2023-05-02T21:19:57.929Z,5.85
2023-05-02T21:22:27.033Z,5.88
2023-05-02T21:24:55.011Z,5.88
2023-05-02T21:27:24.964Z,6.55
2023-05-02T21:29:53.095Z,4.10
2023-05-02T21:32:21.250Z,4.28
2023-05-02T21:34:50.062Z,6.30
2023-05-02T21:37:19.437Z,7.65
2023-05-02T21:39:47.550Z,5.75
2023-05-02T21:42:15.677Z,4.30
2023-05-02T21:44:43.717Z,5.80
2023-05-02T21:47:11.790Z,5.50
2023-05-02T21:49:40.054Z,5.30
2023-05-02T21:52:08.039Z,5.18
2023-05-02T21:54:38.074Z,5.28
2023-05-02T21:57:06.993Z,5.63
2023-05-02T21:59:35.152Z,6.07
2023-05-02T22:02:03.208Z,6.28
2023-05-02T22:04:31.479Z,5.75
2023-05-02T22:06:59.744Z,5.30
2023-05-02T22:09:27.966Z,6.13
2023-05-02T22:11:57.900Z,6.30
2023-05-02T22:14:33.842Z,5.43
2023-05-02T22:17:09.498Z,4.38
2023-05-02T22:19:37.733Z,5.25
2023-05-02T22:22:05.821Z,6.57
2023-05-02T22:24:34.299Z,5.07
2023-05-02T22:27:03.952Z,5.75
2023-05-02T22:29:31.885Z,4.90
2023-05-02T22:31:59.859Z,4.10
2023-05-02T22:34:27.718Z,5.35
2023-05-02T22:36:55.514Z,6.10
2023-05-02T22:39:23.428Z,5.68
2023-05-02T22:41:51.284Z,5.38
2023-05-02T22:44:20.638Z,4.75
2023-05-02T22:46:49.005Z,4.75
2023-05-02T22:49:18.314Z,5.38
2023-05-02T22:51:46.676Z,6.65
2023-05-02T22:54:15.241Z,5.60
2023-05-02T22:56:43.412Z,4.60
2023-05-02T22:59:11.565Z,5.00
2023-05-02T23:01:41.379Z,4.38
2023-05-02T23:04:10.003Z,5.07
2023-05-02T23:06:38.005Z,5.75
2023-05-02T23:09:07.001Z,5.15
2023-05-02T23:11:34.986Z,7.25
2023-05-02T23:14:02.909Z,6.35
2023-05-02T23:16:30.984Z,6.65
2023-05-02T23:19:00.543Z,5.10
2023-05-02T23:21:29.126Z,5.32
2023-05-02T23:23:57.185Z,5.63
2023-05-02T23:26:25.225Z,3.72
2023-05-02T23:28:53.090Z,4.88
2023-05-02T23:31:21.128Z,6.45
2023-05-02T23:33:49.218Z,5.30
2023-05-02T23:36:18.559Z,7.25
2023-05-02T23:38:46.617Z,6.00
2023-05-02T23:41:14.441Z,6.53
2023-05-02T23:43:42.288Z,5.07
2023-05-02T23:46:10.522Z,6.80
2023-05-02T23:48:38.398Z,4.82
2023-05-02T23:51:06.418Z,5.80
2023-05-02T23:53:35.654Z,4.30
2023-05-02T23:56:03.837Z,5.00
2023-05-02T23:58:32.033Z,6.25
